sensor_id;sensor_type;location;lat;lon;timestamp;pressure;altitude;pressure_sealevel;temperature;humidity
76464;BME280;65301;46.666;20.110;2024-02-23T00:00:17;99800.78;;;11.73;51.98
76464;BME280;65301;46.666;20.110;2024-02-23T00:03:19;99812.69;;;11.79;51.79
76464;BME280;65301;46.666;20.110;2024-02-23T00:06:21;99810.03;;;11.79;51.60
76464;BME280;65301;46.666;20.110;2024-02-23T00:09:28;99807.31;;;11.76;52.46
76464;BME280;65301;46.666;20.110;2024-02-23T00:12:30;99800.78;;;11.73;52.09
76464;BME280;65301;46.666;20.110;2024-02-23T00:15:32;99804.22;;;11.74;52.32
76464;BME280;65301;46.666;20.110;2024-02-23T00:18:34;99797.81;;;11.75;51.86
76464;BME280;65301;46.666;20.110;2024-02-23T00:21:39;99793.50;;;11.70;51.42
76464;BME280;65301;46.666;20.110;2024-02-23T00:24:44;99789.56;;;11.76;52.24
76464;BME280;65301;46.666;20.110;2024-02-23T00:27:45;99797.03;;;11.74;51.81
76464;BME280;65301;46.666;20.110;2024-02-23T00:30:48;99788.75;;;11.64;52.23
76464;BME280;65301;46.666;20.110;2024-02-23T00:33:50;99791.25;;;11.60;51.77
76464;BME280;65301;46.666;20.110;2024-02-23T00:36:52;99780.81;;;11.64;52.37
76464;BME280;65301;46.666;20.110;2024-02-23T00:39:54;99790.44;;;11.68;52.04
76464;BME280;65301;46.666;20.110;2024-02-23T00:42:56;99786.66;;;11.69;51.56
76464;BME280;65301;46.666;20.110;2024-02-23T00:45:57;99772.97;;;11.67;51.81
76464;BME280;65301;46.666;20.110;2024-02-23T00:48:59;99781.59;;;11.64;51.91
76464;BME280;65301;46.666;20.110;2024-02-23T00:52:01;99780.47;;;11.65;51.21
76464;BME280;65301;46.666;20.110;2024-02-23T00:55:04;99786.75;;;11.61;50.97
76464;BME280;65301;46.666;20.110;2024-02-23T00:58:06;99785.31;;;11.63;51.37
76464;BME280;65301;46.666;20.110;2024-02-23T01:01:08;99798.09;;;11.61;51.13
76464;BME280;65301;46.666;20.110;2024-02-23T01:04:10;99798.09;;;11.61;51.61
76464;BME280;65301;46.666;20.110;2024-02-23T01:07:12;99805.91;;;11.58;51.51
76464;BME280;65301;46.666;20.110;2024-02-23T01:10:13;99799.09;;;11.57;51.48
76464;BME280;65301;46.666;20.110;2024-02-23T01:13:15;99809.34;;;11.58;51.47
76464;BME280;65301;46.666;20.110;2024-02-23T01:16:17;99800.53;;;11.54;51.83
76464;BME280;65301;46.666;20.110;2024-02-23T01:19:19;99793.81;;;11.57;51.52
76464;BME280;65301;46.666;20.110;2024-02-23T01:22:21;99794.25;;;11.59;52.16
76464;BME280;65301;46.666;20.110;2024-02-23T01:25:23;99797.00;;;11.62;51.95
76464;BME280;65301;46.666;20.110;2024-02-23T01:28:24;99807.69;;;11.66;51.12
76464;BME280;65301;46.666;20.110;2024-02-23T01:31:26;99797.91;;;11.66;51.38
76464;BME280;65301;46.666;20.110;2024-02-23T01:34:28;99813.78;;;11.66;51.78
76464;BME280;65301;46.666;20.110;2024-02-23T01:37:30;99817.06;;;11.63;52.21
76464;BME280;65301;46.666;20.110;2024-02-23T01:40:32;99830.28;;;11.63;51.67
76464;BME280;65301;46.666;20.110;2024-02-23T01:43:34;99822.41;;;11.75;52.18
76464;BME280;65301;46.666;20.110;2024-02-23T01:46:36;99832.06;;;11.59;52.79
76464;BME280;65301;46.666;20.110;2024-02-23T01:49:38;99840.09;;;11.63;52.88
76464;BME280;65301;46.666;20.110;2024-02-23T01:52:40;99843.28;;;11.56;54.47
76464;BME280;65301;46.666;20.110;2024-02-23T01:55:42;99847.59;;;11.61;56.88
76464;BME280;65301;46.666;20.110;2024-02-23T01:58:46;99845.25;;;11.47;58.25
76464;BME280;65301;46.666;20.110;2024-02-23T02:01:48;99842.41;;;11.52;60.65
76464;BME280;65301;46.666;20.110;2024-02-23T02:04:49;99823.59;;;11.33;63.19
76464;BME280;65301;46.666;20.110;2024-02-23T02:07:53;99821.69;;;11.21;65.49
76464;BME280;65301;46.666;20.110;2024-02-23T02:11:00;99819.75;;;10.98;67.20
76464;BME280;65301;46.666;20.110;2024-02-23T02:14:02;99815.28;;;10.90;66.85
76464;BME280;65301;46.666;20.110;2024-02-23T02:17:04;99817.44;;;10.76;70.09
76464;BME280;65301;46.666;20.110;2024-02-23T02:20:11;99813.66;;;10.64;71.80
76464;BME280;65301;46.666;20.110;2024-02-23T02:23:13;99804.84;;;10.60;72.27
76464;BME280;65301;46.666;20.110;2024-02-23T02:26:16;99803.19;;;10.47;73.42
76464;BME280;65301;46.666;20.110;2024-02-23T02:29:18;99801.34;;;10.48;74.15
76464;BME280;65301;46.666;20.110;2024-02-23T02:32:20;99792.31;;;10.49;74.61
76464;BME280;65301;46.666;20.110;2024-02-23T02:35:22;99784.88;;;10.51;74.64
76464;BME280;65301;46.666;20.110;2024-02-23T02:38:23;99782.91;;;10.39;74.63
76464;BME280;65301;46.666;20.110;2024-02-23T02:41:28;99775.94;;;10.35;73.33
76464;BME280;65301;46.666;20.110;2024-02-23T02:44:31;99777.19;;;10.37;72.67
76464;BME280;65301;46.666;20.110;2024-02-23T02:47:33;99785.16;;;10.29;72.56
76464;BME280;65301;46.666;20.110;2024-02-23T02:50:36;99786.06;;;10.33;71.84
76464;BME280;65301;46.666;20.110;2024-02-23T02:53:38;99778.53;;;10.23;72.13
76464;BME280;65301;46.666;20.110;2024-02-23T02:56:43;99778.59;;;10.14;72.57
76464;BME280;65301;46.666;20.110;2024-02-23T02:59:45;99769.78;;;10.01;72.55
76464;BME280;65301;46.666;20.110;2024-02-23T03:02:47;99774.72;;;10.03;73.09
76464;BME280;65301;46.666;20.110;2024-02-23T03:05:49;99778.72;;;10.09;72.74
76464;BME280;65301;46.666;20.110;2024-02-23T03:08:51;99783.28;;;10.00;73.19
76464;BME280;65301;46.666;20.110;2024-02-23T03:11:53;99779.25;;;10.02;72.47
76464;BME280;65301;46.666;20.110;2024-02-23T03:14:55;99779.66;;;10.13;70.52
76464;BME280;65301;46.666;20.110;2024-02-23T03:17:57;99782.56;;;10.20;69.26
76464;BME280;65301;46.666;20.110;2024-02-23T03:20:59;99796.19;;;10.31;67.70
76464;BME280;65301;46.666;20.110;2024-02-23T03:24:01;99804.09;;;10.31;67.14
76464;BME280;65301;46.666;20.110;2024-02-23T03:27:02;99806.03;;;10.42;65.36
76464;BME280;65301;46.666;20.110;2024-02-23T03:30:05;99802.16;;;10.40;65.62
76464;BME280;65301;46.666;20.110;2024-02-23T03:33:09;99794.38;;;10.43;66.19
76464;BME280;65301;46.666;20.110;2024-02-23T03:36:11;99796.09;;;10.39;67.15
76464;BME280;65301;46.666;20.110;2024-02-23T03:39:13;99783.44;;;10.33;67.20
76464;BME280;65301;46.666;20.110;2024-02-23T03:42:15;99781.56;;;10.33;68.59
76464;BME280;65301;46.666;20.110;2024-02-23T03:45:17;99780.84;;;10.24;69.22
76464;BME280;65301;46.666;20.110;2024-02-23T03:48:19;99774.63;;;10.29;69.33
76464;BME280;65301;46.666;20.110;2024-02-23T03:51:21;99778.06;;;10.21;70.67
76464;BME280;65301;46.666;20.110;2024-02-23T03:54:23;99772.97;;;10.16;70.93
76464;BME280;65301;46.666;20.110;2024-02-23T03:57:24;99773.47;;;10.09;72.00
76464;BME280;65301;46.666;20.110;2024-02-23T04:00:26;99771.75;;;10.13;72.09
76464;BME280;65301;46.666;20.110;2024-02-23T04:03:28;99788.97;;;10.11;71.85
76464;BME280;65301;46.666;20.110;2024-02-23T04:06:30;99786.38;;;10.02;72.64
76464;BME280;65301;46.666;20.110;2024-02-23T04:09:32;99793.84;;;10.00;72.80
76464;BME280;65301;46.666;20.110;2024-02-23T04:12:34;99797.91;;;9.97;73.26
76464;BME280;65301;46.666;20.110;2024-02-23T04:15:36;99804.75;;;9.90;74.36
76464;BME280;65301;46.666;20.110;2024-02-23T04:18:37;99813.28;;;9.87;75.68
76464;BME280;65301;46.666;20.110;2024-02-23T04:21:39;99814.09;;;9.79;75.87
76464;BME280;65301;46.666;20.110;2024-02-23T04:24:41;99817.38;;;9.76;76.50
76464;BME280;65301;46.666;20.110;2024-02-23T04:27:43;99824.19;;;9.77;76.27
76464;BME280;65301;46.666;20.110;2024-02-23T04:30:45;99831.22;;;9.64;79.46
76464;BME280;65301;46.666;20.110;2024-02-23T04:33:46;99837.28;;;9.48;80.72
76464;BME280;65301;46.666;20.110;2024-02-23T04:36:48;99838.53;;;9.50;79.75
76464;BME280;65301;46.666;20.110;2024-02-23T04:39:50;99835.91;;;9.50;80.73
76464;BME280;65301;46.666;20.110;2024-02-23T04:42:52;99835.78;;;9.38;82.74
76464;BME280;65301;46.666;20.110;2024-02-23T04:45:54;99844.63;;;9.33;84.44
76464;BME280;65301;46.666;20.110;2024-02-23T04:48:56;99847.56;;;9.32;82.66
76464;BME280;65301;46.666;20.110;2024-02-23T04:51:58;99849.44;;;9.40;82.59
76464;BME280;65301;46.666;20.110;2024-02-23T04:55:00;99843.69;;;9.38;83.07
76464;BME280;65301;46.666;20.110;2024-02-23T04:58:02;99841.53;;;9.40;82.44
76464;BME280;65301;46.666;20.110;2024-02-23T05:01:04;99849.56;;;9.44;83.49
76464;BME280;65301;46.666;20.110;2024-02-23T05:04:06;99845.38;;;9.43;83.55
76464;BME280;65301;46.666;20.110;2024-02-23T05:07:08;99853.94;;;9.39;84.47
76464;BME280;65301;46.666;20.110;2024-02-23T05:10:10;99858.75;;;9.37;85.11
76464;BME280;65301;46.666;20.110;2024-02-23T05:13:12;99854.25;;;9.29;86.08
76464;BME280;65301;46.666;20.110;2024-02-23T05:16:14;99852.06;;;9.31;86.17
76464;BME280;65301;46.666;20.110;2024-02-23T05:19:16;99855.47;;;9.40;84.94
76464;BME280;65301;46.666;20.110;2024-02-23T05:22:18;99850.19;;;9.40;82.53
76464;BME280;65301;46.666;20.110;2024-02-23T05:25:21;99854.50;;;9.45;82.28
76464;BME280;65301;46.666;20.110;2024-02-23T05:28:22;99844.13;;;9.49;82.02
76464;BME280;65301;46.666;20.110;2024-02-23T05:31:46;99827.69;;;9.43;83.71
76464;BME280;65301;46.666;20.110;2024-02-23T05:34:48;99823.69;;;9.37;84.66
76464;BME280;65301;46.666;20.110;2024-02-23T05:37:53;99828.06;;;9.24;83.31
76464;BME280;65301;46.666;20.110;2024-02-23T05:40:54;99835.94;;;9.33;82.18
76464;BME280;65301;46.666;20.110;2024-02-23T05:43:56;99844.94;;;9.23;82.79
76464;BME280;65301;46.666;20.110;2024-02-23T05:46:58;99846.34;;;9.12;82.61
76464;BME280;65301;46.666;20.110;2024-02-23T05:50:01;99853.78;;;9.19;82.58
76464;BME280;65301;46.666;20.110;2024-02-23T05:53:04;99860.59;;;9.20;81.35
76464;BME280;65301;46.666;20.110;2024-02-23T05:56:06;99867.13;;;9.22;81.15
76464;BME280;65301;46.666;20.110;2024-02-23T05:59:08;99868.81;;;9.27;82.18
76464;BME280;65301;46.666;20.110;2024-02-23T06:02:10;99882.31;;;9.25;83.64
76464;BME280;65301;46.666;20.110;2024-02-23T06:05:12;99872.88;;;9.16;84.26
76464;BME280;65301;46.666;20.110;2024-02-23T06:08:14;99884.47;;;9.23;82.89
76464;BME280;65301;46.666;20.110;2024-02-23T06:11:16;99882.44;;;9.29;83.04
76464;BME280;65301;46.666;20.110;2024-02-23T06:14:18;99889.41;;;9.42;81.66
76464;BME280;65301;46.666;20.110;2024-02-23T06:17:20;99891.28;;;9.42;82.06
76464;BME280;65301;46.666;20.110;2024-02-23T06:20:22;99886.63;;;9.47;81.00
76464;BME280;65301;46.666;20.110;2024-02-23T06:23:24;99889.56;;;9.46;82.40
76464;BME280;65301;46.666;20.110;2024-02-23T06:26:25;99885.53;;;9.39;81.08
76464;BME280;65301;46.666;20.110;2024-02-23T06:29:27;99884.00;;;9.38;82.05
76464;BME280;65301;46.666;20.110;2024-02-23T06:32:29;99879.69;;;9.25;83.43
76464;BME280;65301;46.666;20.110;2024-02-23T06:35:32;99876.41;;;9.28;83.90
76464;BME280;65301;46.666;20.110;2024-02-23T06:38:34;99872.81;;;9.42;83.25
76464;BME280;65301;46.666;20.110;2024-02-23T06:41:37;99874.56;;;9.37;82.85
76464;BME280;65301;46.666;20.110;2024-02-23T06:44:40;99868.47;;;9.46;83.67
76464;BME280;65301;46.666;20.110;2024-02-23T06:47:44;99866.00;;;9.40;84.11
76464;BME280;65301;46.666;20.110;2024-02-23T06:50:46;99865.53;;;9.47;82.80
76464;BME280;65301;46.666;20.110;2024-02-23T06:53:48;99846.47;;;9.42;83.63
76464;BME280;65301;46.666;20.110;2024-02-23T06:56:50;99848.31;;;9.50;83.23
76464;BME280;65301;46.666;20.110;2024-02-23T06:59:52;99852.81;;;9.49;84.57
76464;BME280;65301;46.666;20.110;2024-02-23T07:02:54;99843.63;;;9.55;82.07
76464;BME280;65301;46.666;20.110;2024-02-23T07:05:56;99856.81;;;9.64;84.30
76464;BME280;65301;46.666;20.110;2024-02-23T07:08:58;99843.47;;;9.69;83.16
76464;BME280;65301;46.666;20.110;2024-02-23T07:12:00;99848.75;;;9.60;83.82
76464;BME280;65301;46.666;20.110;2024-02-23T07:15:02;99837.53;;;9.72;83.30
76464;BME280;65301;46.666;20.110;2024-02-23T07:18:05;99847.47;;;9.75;81.27
76464;BME280;65301;46.666;20.110;2024-02-23T07:21:07;99845.78;;;9.70;82.56
76464;BME280;65301;46.666;20.110;2024-02-23T07:24:08;99848.13;;;9.63;81.59
76464;BME280;65301;46.666;20.110;2024-02-23T07:27:10;99849.16;;;9.79;80.07
76464;BME280;65301;46.666;20.110;2024-02-23T07:30:12;99849.13;;;9.88;81.05
76464;BME280;65301;46.666;20.110;2024-02-23T07:33:14;99856.13;;;9.84;80.10
76464;BME280;65301;46.666;20.110;2024-02-23T07:36:17;99851.31;;;9.86;81.18
76464;BME280;65301;46.666;20.110;2024-02-23T07:39:20;99868.41;;;9.80;80.83
76464;BME280;65301;46.666;20.110;2024-02-23T07:42:26;99862.50;;;9.83;81.66
76464;BME280;65301;46.666;20.110;2024-02-23T07:45:29;99884.81;;;9.85;81.34
76464;BME280;65301;46.666;20.110;2024-02-23T07:48:31;99877.94;;;10.01;80.25
76464;BME280;65301;46.666;20.110;2024-02-23T07:51:33;99886.31;;;10.12;80.87
76464;BME280;65301;46.666;20.110;2024-02-23T07:54:35;99882.91;;;10.12;80.52
76464;BME280;65301;46.666;20.110;2024-02-23T07:57:37;99886.91;;;10.09;81.40
76464;BME280;65301;46.666;20.110;2024-02-23T08:00:41;99888.78;;;10.17;82.89
76464;BME280;65301;46.666;20.110;2024-02-23T08:03:43;99899.59;;;10.24;82.65
76464;BME280;65301;46.666;20.110;2024-02-23T08:06:45;99895.66;;;10.39;82.80
76464;BME280;65301;46.666;20.110;2024-02-23T08:09:46;99907.72;;;10.48;83.18
76464;BME280;65301;46.666;20.110;2024-02-23T08:12:49;99897.69;;;10.62;84.82
76464;BME280;65301;46.666;20.110;2024-02-23T08:15:51;99897.25;;;10.81;82.95
76464;BME280;65301;46.666;20.110;2024-02-23T08:18:52;99908.41;;;10.87;81.28
76464;BME280;65301;46.666;20.110;2024-02-23T08:21:54;99913.09;;;10.81;81.84
76464;BME280;65301;46.666;20.110;2024-02-23T08:24:56;99913.75;;;10.78;82.30
76464;BME280;65301;46.666;20.110;2024-02-23T08:27:58;99894.94;;;10.80;82.81
76464;BME280;65301;46.666;20.110;2024-02-23T08:31:01;99909.94;;;10.88;82.57
76464;BME280;65301;46.666;20.110;2024-02-23T08:34:02;99901.91;;;11.05;83.52
76464;BME280;65301;46.666;20.110;2024-02-23T08:37:04;99902.53;;;11.22;82.76
76464;BME280;65301;46.666;20.110;2024-02-23T08:40:07;99899.19;;;11.34;77.98
76464;BME280;65301;46.666;20.110;2024-02-23T08:43:09;99890.03;;;11.64;80.15
76464;BME280;65301;46.666;20.110;2024-02-23T08:46:11;99891.53;;;11.53;77.58
76464;BME280;65301;46.666;20.110;2024-02-23T08:49:13;99895.94;;;11.49;78.02
76464;BME280;65301;46.666;20.110;2024-02-23T08:52:15;99893.63;;;11.60;79.41
76464;BME280;65301;46.666;20.110;2024-02-23T08:55:16;99897.00;;;11.69;78.32
76464;BME280;65301;46.666;20.110;2024-02-23T08:58:19;99887.81;;;11.66;77.63
76464;BME280;65301;46.666;20.110;2024-02-23T09:01:23;99900.47;;;11.61;76.86
76464;BME280;65301;46.666;20.110;2024-02-23T09:04:25;99887.06;;;11.66;78.78
76464;BME280;65301;46.666;20.110;2024-02-23T09:07:27;99887.19;;;11.69;79.79
76464;BME280;65301;46.666;20.110;2024-02-23T09:10:29;99891.31;;;11.91;79.31
76464;BME280;65301;46.666;20.110;2024-02-23T09:13:31;99892.63;;;11.85;77.93
76464;BME280;65301;46.666;20.110;2024-02-23T09:16:33;99894.75;;;12.03;77.10
76464;BME280;65301;46.666;20.110;2024-02-23T09:19:35;99891.78;;;12.05;76.25
76464;BME280;65301;46.666;20.110;2024-02-23T09:22:38;99897.38;;;12.03;75.18
76464;BME280;65301;46.666;20.110;2024-02-23T09:25:41;99885.50;;;11.97;75.97
76464;BME280;65301;46.666;20.110;2024-02-23T09:28:45;99893.09;;;11.99;76.76
76464;BME280;65301;46.666;20.110;2024-02-23T09:31:47;99877.22;;;12.11;75.88
76464;BME280;65301;46.666;20.110;2024-02-23T09:34:49;99880.50;;;12.08;75.61
76464;BME280;65301;46.666;20.110;2024-02-23T09:37:51;99885.59;;;12.13;74.51
76464;BME280;65301;46.666;20.110;2024-02-23T09:40:54;99886.16;;;12.07;75.23
76464;BME280;65301;46.666;20.110;2024-02-23T09:43:58;99889.81;;;12.14;74.42
76464;BME280;65301;46.666;20.110;2024-02-23T09:47:04;99893.66;;;12.17;73.65
76464;BME280;65301;46.666;20.110;2024-02-23T09:50:10;99892.22;;;12.19;74.33
76464;BME280;65301;46.666;20.110;2024-02-23T09:53:13;99891.88;;;12.21;75.23
76464;BME280;65301;46.666;20.110;2024-02-23T09:56:15;99882.72;;;12.18;73.41
76464;BME280;65301;46.666;20.110;2024-02-23T09:59:22;99887.72;;;12.20;73.92
76464;BME280;65301;46.666;20.110;2024-02-23T10:02:25;99889.25;;;12.33;74.40
76464;BME280;65301;46.666;20.110;2024-02-23T10:05:30;99886.59;;;12.33;73.93
76464;BME280;65301;46.666;20.110;2024-02-23T10:08:40;99893.66;;;12.17;74.60
76464;BME280;65301;46.666;20.110;2024-02-23T10:11:45;99886.03;;;12.03;74.44
76464;BME280;65301;46.666;20.110;2024-02-23T10:15:15;99884.38;;;12.11;73.40
76464;BME280;65301;46.666;20.110;2024-02-23T10:18:18;99886.72;;;12.24;73.64
76464;BME280;65301;46.666;20.110;2024-02-23T10:21:20;99886.38;;;12.26;72.00
76464;BME280;65301;46.666;20.110;2024-02-23T10:24:22;99879.06;;;12.59;73.07
76464;BME280;65301;46.666;20.110;2024-02-23T10:27:25;99872.59;;;12.96;70.19
76464;BME280;65301;46.666;20.110;2024-02-23T10:30:28;99876.75;;;13.09;69.68
76464;BME280;65301;46.666;20.110;2024-02-23T10:33:30;99877.66;;;13.13;69.06
76464;BME280;65301;46.666;20.110;2024-02-23T10:36:33;99875.03;;;12.89;69.62
76464;BME280;65301;46.666;20.110;2024-02-23T10:39:38;99880.75;;;13.03;70.46
76464;BME280;65301;46.666;20.110;2024-02-23T10:42:44;99878.75;;;13.00;69.72
76464;BME280;65301;46.666;20.110;2024-02-23T10:45:53;99878.56;;;12.93;70.92
76464;BME280;65301;46.666;20.110;2024-02-23T10:48:55;99878.91;;;12.92;70.06
76464;BME280;65301;46.666;20.110;2024-02-23T10:51:58;99873.16;;;12.90;71.40
76464;BME280;65301;46.666;20.110;2024-02-23T10:55:01;99867.59;;;12.95;70.82
76464;BME280;65301;46.666;20.110;2024-02-23T10:58:09;99879.91;;;12.87;70.97
76464;BME280;65301;46.666;20.110;2024-02-23T11:01:14;99886.75;;;12.88;71.34
76464;BME280;65301;46.666;20.110;2024-02-23T11:04:17;99891.00;;;13.05;69.93
76464;BME280;65301;46.666;20.110;2024-02-23T11:07:19;99881.97;;;13.06;69.96
76464;BME280;65301;46.666;20.110;2024-02-23T11:10:23;99899.97;;;13.00;71.37
76464;BME280;65301;46.666;20.110;2024-02-23T11:13:30;99895.66;;;12.96;70.46
76464;BME280;65301;46.666;20.110;2024-02-23T11:16:38;99898.09;;;13.01;70.30
76464;BME280;65301;46.666;20.110;2024-02-23T11:19:45;99892.59;;;12.94;69.78
76464;BME280;65301;46.666;20.110;2024-02-23T11:22:51;99898.75;;;12.98;69.99
76464;BME280;65301;46.666;20.110;2024-02-23T11:29:12;99894.41;;;13.17;69.70
76464;BME280;65301;46.666;20.110;2024-02-23T11:32:17;99900.53;;;13.33;70.68
76464;BME280;65301;46.666;20.110;2024-02-23T11:35:20;99890.34;;;13.35;69.55
76464;BME280;65301;46.666;20.110;2024-02-23T11:38:27;99875.22;;;13.36;69.23
76464;BME280;65301;46.666;20.110;2024-02-23T11:41:29;99875.41;;;13.43;68.66
76464;BME280;65301;46.666;20.110;2024-02-23T11:44:31;99877.56;;;13.38;68.92
76464;BME280;65301;46.666;20.110;2024-02-23T11:47:33;99875.41;;;13.43;68.24
76464;BME280;65301;46.666;20.110;2024-02-23T11:50:35;99878.25;;;13.50;68.33
76464;BME280;65301;46.666;20.110;2024-02-23T11:53:37;99876.47;;;13.54;68.86
76464;BME280;65301;46.666;20.110;2024-02-23T11:56:40;99885.19;;;13.55;69.58
76464;BME280;65301;46.666;20.110;2024-02-23T11:59:42;99882.19;;;13.56;68.99
76464;BME280;65301;46.666;20.110;2024-02-23T12:02:46;99884.75;;;13.53;67.73
76464;BME280;65301;46.666;20.110;2024-02-23T12:05:50;99867.81;;;13.57;68.71
76464;BME280;65301;46.666;20.110;2024-02-23T12:08:53;99860.31;;;13.59;68.75
76464;BME280;65301;46.666;20.110;2024-02-23T12:11:55;99859.16;;;13.60;68.73
76464;BME280;65301;46.666;20.110;2024-02-23T12:14:57;99848.47;;;13.57;68.46
76464;BME280;65301;46.666;20.110;2024-02-23T12:18:00;99850.78;;;13.58;67.10
76464;BME280;65301;46.666;20.110;2024-02-23T12:21:04;99845.22;;;13.63;64.64
76464;BME280;65301;46.666;20.110;2024-02-23T12:24:07;99831.97;;;13.63;64.96
76464;BME280;65301;46.666;20.110;2024-02-23T12:27:18;99826.66;;;13.63;64.16
76464;BME280;65301;46.666;20.110;2024-02-23T12:30:20;99837.44;;;13.70;63.60
76464;BME280;65301;46.666;20.110;2024-02-23T12:33:22;99827.75;;;13.62;63.79
76464;BME280;65301;46.666;20.110;2024-02-23T12:36:25;99832.81;;;13.52;63.90
76464;BME280;65301;46.666;20.110;2024-02-23T12:39:35;99838.25;;;13.43;64.03
76464;BME280;65301;46.666;20.110;2024-02-23T12:43:04;99830.66;;;13.42;64.68
76464;BME280;65301;46.666;20.110;2024-02-23T12:46:06;99828.41;;;13.28;64.88
76464;BME280;65301;46.666;20.110;2024-02-23T12:49:09;99834.63;;;13.20;64.75
76464;BME280;65301;46.666;20.110;2024-02-23T12:52:14;99820.94;;;13.18;65.45
76464;BME280;65301;46.666;20.110;2024-02-23T12:55:16;99818.78;;;13.08;65.58
76464;BME280;65301;46.666;20.110;2024-02-23T12:58:18;99813.84;;;13.06;65.97
76464;BME280;65301;46.666;20.110;2024-02-23T13:01:20;99807.34;;;12.92;65.81
76464;BME280;65301;46.666;20.110;2024-02-23T13:04:30;99807.97;;;13.01;65.12
76464;BME280;65301;46.666;20.110;2024-02-23T13:07:32;99806.41;;;13.00;63.99
76464;BME280;65301;46.666;20.110;2024-02-23T13:10:34;99805.19;;;13.09;63.93
76464;BME280;65301;46.666;20.110;2024-02-23T13:13:36;99801.09;;;13.12;64.24
76464;BME280;65301;46.666;20.110;2024-02-23T13:16:40;99809.81;;;13.12;64.38
76464;BME280;65301;46.666;20.110;2024-02-23T13:19:42;99810.94;;;13.11;64.16
76464;BME280;65301;46.666;20.110;2024-02-23T13:22:57;99805.19;;;13.09;64.95
76464;BME280;65301;46.666;20.110;2024-02-23T13:25:59;99820.41;;;13.12;64.78
76464;BME280;65301;46.666;20.110;2024-02-23T13:29:04;99821.78;;;13.06;65.25
76464;BME280;65301;46.666;20.110;2024-02-23T13:32:06;99824.88;;;13.08;66.00
76464;BME280;65301;46.666;20.110;2024-02-23T13:35:11;99824.44;;;13.06;65.29
76464;BME280;65301;46.666;20.110;2024-02-23T13:38:13;99818.78;;;13.08;65.46
76464;BME280;65301;46.666;20.110;2024-02-23T13:41:15;99817.78;;;13.00;66.25
76464;BME280;65301;46.666;20.110;2024-02-23T13:44:17;99822.91;;;12.93;66.25
76464;BME280;65301;46.666;20.110;2024-02-23T13:47:19;99818.63;;;12.89;66.65
76464;BME280;65301;46.666;20.110;2024-02-23T13:50:20;99824.22;;;12.99;66.50
76464;BME280;65301;46.666;20.110;2024-02-23T13:53:23;99818.91;;;12.99;66.35
76464;BME280;65301;46.666;20.110;2024-02-23T13:56:25;99826.16;;;13.02;66.38
76464;BME280;65301;46.666;20.110;2024-02-23T13:59:29;99820.84;;;13.14;65.93
76464;BME280;65301;46.666;20.110;2024-02-23T14:02:31;99824.88;;;13.08;66.03
76464;BME280;65301;46.666;20.110;2024-02-23T14:05:34;99818.53;;;13.13;65.61
76464;BME280;65301;46.666;20.110;2024-02-23T14:08:37;99824.03;;;13.20;66.00
76464;BME280;65301;46.666;20.110;2024-02-23T14:11:40;99828.56;;;13.19;66.51
76464;BME280;65301;46.666;20.110;2024-02-23T14:14:42;99817.88;;;13.16;65.63
76464;BME280;65301;46.666;20.110;2024-02-23T14:17:44;99825.06;;;13.15;65.54
76464;BME280;65301;46.666;20.110;2024-02-23T14:20:46;99823.94;;;13.16;65.53
76464;BME280;65301;46.666;20.110;2024-02-23T14:23:48;99815.66;;;13.18;64.66
76464;BME280;65301;46.666;20.110;2024-02-23T14:26:50;99810.34;;;13.18;64.82
76464;BME280;65301;46.666;20.110;2024-02-23T14:29:52;99816.50;;;13.22;64.85
76464;BME280;65301;46.666;20.110;2024-02-23T14:32:54;99808.38;;;13.15;64.81
76464;BME280;65301;46.666;20.110;2024-02-23T14:35:56;99808.38;;;13.15;64.81
76464;BME280;65301;46.666;20.110;2024-02-23T14:38:58;99804.25;;;13.17;64.65
76464;BME280;65301;46.666;20.110;2024-02-23T14:42:11;99805.47;;;13.20;63.81
76464;BME280;65301;46.666;20.110;2024-02-23T14:45:38;99803.72;;;13.12;64.49
76464;BME280;65301;46.666;20.110;2024-02-23T14:48:40;99807.16;;;13.12;64.36
76464;BME280;65301;46.666;20.110;2024-02-23T14:51:42;99811.81;;;13.03;64.26
76464;BME280;65301;46.666;20.110;2024-02-23T14:54:44;99816.34;;;13.03;63.75
76464;BME280;65301;46.666;20.110;2024-02-23T14:57:47;99824.53;;;12.98;64.12
76464;BME280;65301;46.666;20.110;2024-02-23T15:00:48;99819.66;;;13.00;64.44
76464;BME280;65301;46.666;20.110;2024-02-23T15:03:51;99825.41;;;13.02;64.31
76464;BME280;65301;46.666;20.110;2024-02-23T15:06:52;99822.06;;;13.05;65.58
76464;BME280;65301;46.666;20.110;2024-02-23T15:09:54;99819.00;;;13.03;64.92
76464;BME280;65301;46.666;20.110;2024-02-23T15:12:56;99813.06;;;13.06;64.00
76464;BME280;65301;46.666;20.110;2024-02-23T15:15:58;99820.06;;;13.14;64.14
76464;BME280;65301;46.666;20.110;2024-02-23T15:19:01;99808.38;;;13.15;63.75
76464;BME280;65301;46.666;20.110;2024-02-23T15:22:15;99813.66;;;13.15;63.78
76464;BME280;65301;46.666;20.110;2024-02-23T15:25:19;99806.84;;;13.02;64.00
76464;BME280;65301;46.666;20.110;2024-02-23T15:28:21;99808.75;;;13.01;64.04
76464;BME280;65301;46.666;20.110;2024-02-23T15:31:24;99808.75;;;13.01;64.44
76464;BME280;65301;46.666;20.110;2024-02-23T15:34:26;99809.28;;;12.95;63.82
76464;BME280;65301;46.666;20.110;2024-02-23T15:37:31;99803.75;;;13.00;64.37
76464;BME280;65301;46.666;20.110;2024-02-23T15:40:33;99802.13;;;12.95;64.81
76464;BME280;65301;46.666;20.110;2024-02-23T15:43:35;99798.47;;;13.00;64.88
76464;BME280;65301;46.666;20.110;2024-02-23T15:46:36;99789.28;;;12.97;65.61
76464;BME280;65301;46.666;20.110;2024-02-23T15:49:39;99792.06;;;13.01;65.00
76464;BME280;65301;46.666;20.110;2024-02-23T15:53:01;99797.00;;;13.02;65.96
76464;BME280;65301;46.666;20.110;2024-02-23T15:56:06;99799.91;;;12.97;66.00
76464;BME280;65301;46.666;20.110;2024-02-23T15:59:08;99802.13;;;12.95;65.72
76464;BME280;65301;46.666;20.110;2024-02-23T16:02:10;99803.91;;;12.91;65.65